AAL375 CYVR-PHNL
Flight info
| Callsign | AAL375 |
|---|---|
| Flight time | N/A |
| Altitude | 36000 |
| Route | PITUT DCT 48N130W 44N135W 37N140W DCT AXELE/N0438F380 DCT BEKME R464 BITTA MAGGI3 |
| Aircraft | A21N/M-SDE2E3FGHIRWXY/LB1 |
Departure
| Time | 2026-04-30 21:19 |
|---|---|
| Airport | Vancouver International Airport (CYVR) |
Arrival
| Time | N/A |
|---|---|
| Airport | Daniel K. Inouye International Airport (PHNL) |
| Time | Latitude | Longitude | Altitude | Speed | Heading |
|---|---|---|---|---|---|
| 2026-04-30 20:42 | 49.19179 | -123.18340 | 21 ft | 0 kts | 353° |
| 2026-04-30 21:04 | 49.19167 | -123.18338 | 21 ft | 2 kts | 355° |
| 2026-04-30 21:05 | 49.19150 | -123.18337 | 22 ft | 2 kts | 1° |
| 2026-04-30 21:05 | 49.19134 | -123.18339 | 23 ft | 2 kts | 15° |
| 2026-04-30 21:05 | 49.19119 | -123.18351 | 21 ft | 2 kts | 52° |
| 2026-04-30 21:05 | 49.19113 | -123.18367 | 21 ft | 1 kts | 68° |
| 2026-04-30 21:06 | 49.19113 | -123.18368 | 21 ft | 0 kts | 68° |
| 2026-04-30 21:08 | 49.19114 | -123.18365 | 21 ft | 1 kts | 70° |
| 2026-04-30 21:08 | 49.19117 | -123.18350 | 21 ft | 2 kts | 74° |
| 2026-04-30 21:09 | 49.19120 | -123.18326 | 21 ft | 3 kts | 79° |
| 2026-04-30 21:09 | 49.19123 | -123.18295 | 22 ft | 3 kts | 87° |
| 2026-04-30 21:09 | 49.19122 | -123.18257 | 21 ft | 4 kts | 95° |
| 2026-04-30 21:09 | 49.19119 | -123.18215 | 21 ft | 3 kts | 98° |
| 2026-04-30 21:10 | 49.19114 | -123.18177 | 21 ft | 4 kts | 101° |
| 2026-04-30 21:10 | 49.19109 | -123.18136 | 21 ft | 4 kts | 101° |
| 2026-04-30 21:10 | 49.19101 | -123.18089 | 21 ft | 5 kts | 113° |
| 2026-04-30 21:10 | 49.19078 | -123.18052 | 21 ft | 5 kts | 152° |
| 2026-04-30 21:11 | 49.19044 | -123.18045 | 21 ft | 5 kts | 184° |
| 2026-04-30 21:11 | 49.19007 | -123.18053 | 21 ft | 5 kts | 190° |
| 2026-04-30 21:11 | 49.18968 | -123.18064 | 21 ft | 6 kts | 190° |
| 2026-04-30 21:11 | 49.18928 | -123.18064 | 21 ft | 6 kts | 157° |
| 2026-04-30 21:12 | 49.18908 | -123.18016 | 34 ft | 6 kts | 106° |
| 2026-04-30 21:12 | 49.18900 | -123.17955 | 14 ft | 6 kts | 101° |
| 2026-04-30 21:12 | 49.18891 | -123.17883 | 23 ft | 11 kts | 100° |
| 2026-04-30 21:12 | 49.18875 | -123.17750 | 21 ft | 13 kts | 99° |
| 2026-04-30 21:13 | 49.18860 | -123.17613 | 24 ft | 13 kts | 99° |
| 2026-04-30 21:13 | 49.18844 | -123.17474 | 23 ft | 13 kts | 100° |
| 2026-04-30 21:13 | 49.18828 | -123.17332 | 22 ft | 14 kts | 99° |
| 2026-04-30 21:13 | 49.18811 | -123.17185 | 21 ft | 14 kts | 100° |
| 2026-04-30 21:14 | 49.18794 | -123.17036 | 21 ft | 14 kts | 100° |
| 2026-04-30 21:14 | 49.18777 | -123.16883 | 23 ft | 15 kts | 99° |
| 2026-04-30 21:14 | 49.18761 | -123.16730 | 24 ft | 11 kts | 99° |
| 2026-04-30 21:14 | 49.18749 | -123.16621 | 21 ft | 10 kts | 101° |
| 2026-04-30 21:15 | 49.18735 | -123.16510 | 22 ft | 11 kts | 100° |
| 2026-04-30 21:15 | 49.18721 | -123.16396 | 22 ft | 11 kts | 99° |
| 2026-04-30 21:15 | 49.18710 | -123.16326 | 23 ft | 3 kts | 114° |
| 2026-04-30 21:15 | 49.18680 | -123.16265 | 22 ft | 10 kts | 133° |
| 2026-04-30 21:16 | 49.18642 | -123.16186 | 22 ft | 9 kts | 110° |
| 2026-04-30 21:16 | 49.18626 | -123.16089 | 22 ft | 9 kts | 111° |
| 2026-04-30 21:16 | 49.18592 | -123.16042 | 24 ft | 0 kts | 164° |
| 2026-04-30 21:17 | 49.18581 | -123.16040 | 23 ft | 7 kts | 172° |
| 2026-04-30 21:18 | 49.18531 | -123.16047 | 25 ft | 12 kts | 192° |
| 2026-04-30 21:18 | 49.18481 | -123.16148 | 23 ft | 14 kts | 275° |
| 2026-04-30 21:18 | 49.18512 | -123.16408 | 22 ft | 50 kts | 280° |
| 2026-04-30 21:18 | 49.18607 | -123.17241 | 24 ft | 110 kts | 279° |
| 2026-04-30 21:19 | 49.18772 | -123.18695 | 48 ft | 159 kts | 280° |
| 2026-04-30 21:19 | 49.18947 | -123.20386 | 489 ft | 168 kts | 279° |
| 2026-04-30 21:19 | 49.19102 | -123.22228 | 1010 ft | 186 kts | 276° |
| 2026-04-30 21:19 | 49.19139 | -123.24304 | 1384 ft | 206 kts | 264° |
| 2026-04-30 21:20 | 49.18905 | -123.26511 | 1243 ft | 214 kts | 260° |
| 2026-04-30 21:20 | 49.18612 | -123.28860 | 987 ft | 237 kts | 261° |
| 2026-04-30 21:20 | 49.18321 | -123.31397 | 960 ft | 242 kts | 261° |
| 2026-04-30 21:20 | 49.18057 | -123.33890 | 1190 ft | 236 kts | 262° |
| 2026-04-30 21:21 | 49.17809 | -123.36355 | 1744 ft | 238 kts | 261° |
| 2026-04-30 21:21 | 49.17526 | -123.38957 | 1986 ft | 255 kts | 260° |
| 2026-04-30 21:21 | 49.16886 | -123.44385 | 2402 ft | 260 kts | 259° |
| 2026-04-30 21:22 | 49.16562 | -123.47070 | 2528 ft | 260 kts | 259° |
| 2026-04-30 21:22 | 49.15582 | -123.55266 | 2908 ft | 262 kts | 259° |
| 2026-04-30 21:23 | 49.15257 | -123.58009 | 3034 ft | 262 kts | 259° |
| 2026-04-30 21:23 | 49.14933 | -123.60749 | 3160 ft | 263 kts | 259° |
| 2026-04-30 21:23 | 49.14280 | -123.66244 | 3421 ft | 263 kts | 259° |
| 2026-04-30 21:24 | 49.13952 | -123.68999 | 3552 ft | 264 kts | 259° |
| 2026-04-30 21:24 | 49.13629 | -123.71714 | 3659 ft | 263 kts | 258° |
| 2026-04-30 21:24 | 49.13300 | -123.74448 | 3801 ft | 261 kts | 258° |
| 2026-04-30 21:24 | 49.12963 | -123.77176 | 3898 ft | 261 kts | 258° |
| 2026-04-30 21:25 | 49.12302 | -123.82639 | 4156 ft | 263 kts | 258° |
| 2026-04-30 21:25 | 49.11976 | -123.85385 | 4275 ft | 263 kts | 259° |
| 2026-04-30 21:25 | 49.11652 | -123.88136 | 4393 ft | 263 kts | 258° |
| 2026-04-30 21:26 | 49.10989 | -123.93638 | 4655 ft | 264 kts | 258° |
| 2026-04-30 21:26 | 49.10650 | -123.96398 | 4782 ft | 265 kts | 258° |
| 2026-04-30 21:27 | 49.09973 | -124.01891 | 5046 ft | 266 kts | 258° |
| 2026-04-30 21:27 | 49.09637 | -124.04666 | 5162 ft | 266 kts | 258° |
| 2026-04-30 21:27 | 49.09299 | -124.07441 | 5281 ft | 266 kts | 258° |
| 2026-04-30 21:28 | 49.08651 | -124.13026 | 5533 ft | 268 kts | 258° |
| 2026-04-30 21:28 | 49.08304 | -124.15817 | 5672 ft | 268 kts | 257° |
| 2026-04-30 21:28 | 49.07590 | -124.21407 | 5926 ft | 269 kts | 258° |
| 2026-04-30 21:29 | 49.07247 | -124.24209 | 6036 ft | 269 kts | 258° |
| 2026-04-30 21:29 | 49.06187 | -124.32594 | 6410 ft | 269 kts | 258° |
| 2026-04-30 21:30 | 49.05487 | -124.38227 | 6661 ft | 271 kts | 258° |